Lady Lauren — WDE7767 — position and weather

sailwx.info

Track history (hours):
 
Tides and Currents Weather Stations Pressure Air Temp Water Temp Dewpoint Dewpoint Depression Visibility Wind Speed Wind Dir Waves Ship Positions

Lady Lauren

Owner: Louisiana Marine Towing LLC, Lafayette, LA. More information available from US FCC via Universal Licensing System and Coast Guard Vessel Documentation Center.

Last reported at 2014-Oct-18 16:26 UTC. Time now 2014-Oct-21 18:29 UTC.
Position N 29°51' W 091°12'.

Length 22 m; draft 2.1 m.

Type: Towing. MMSI: 367397380.

Date/timePositionNaut miles runAvg speedWind from/ knotsBaromVisibWave heightAir tempDewpointWater temp
2014-Oct-18 16:26N 29°51' W 091°12'4 4.0
2014-Oct-18 15:33N 29°48' W 091°10'4 4.4
2014-Oct-18 14:33N 29°44' W 091°11'3 3.2
2014-Oct-18 13:33N 29°41' W 091°13'1 1.1
2014-Oct-18 12:33N 29°40' W 091°14'0 0.0
2014-Oct-18 11:33N 29°40' W 091°14'2 1.8
2014-Oct-18 10:33N 29°39' W 091°15'0 0.5
2014-Oct-18 09:33N 29°39' W 091°16'4 4.2
2014-Oct-18 08:33N 29°38' W 091°20'5 4.5
2014-Oct-18 07:33N 29°40' W 091°26'4 3.9
2014-Oct-18 06:26N 29°42' W 091°30'4 3.8
2014-Oct-18 05:21N 29°44' W 091°34'  
2014-Oct-15 16:32N 29°28' W 094°39'4 1.7
2014-Oct-15 14:04N 29°30' W 094°34'0 0.1
2014-Oct-15 11:33N 29°30' W 094°34'  
2014-Oct-11 08:28N 29°46' W 091°37'3 3.3
2014-Oct-11 07:33N 29°44' W 091°34'4 3.5
2014-Oct-11 06:22N 29°42' W 091°30'3 3.8
2014-Oct-11 05:29N 29°40' W 091°27'3 3.8
2014-Oct-11 04:34N 29°39' W 091°23'4 3.7
2014-Oct-11 03:34N 29°38' W 091°19'4 3.9
2014-Oct-11 02:34N 29°40' W 091°14'4 4.1
2014-Oct-11 01:34N 29°43' W 091°13'1 1.0
2014-Oct-11 00:34N 29°44' W 091°11'3 3.0
2014-Oct-10 23:33N 29°46' W 091°11'  
Track history (hours):
 
Tides and Currents Weather Stations Pressure Air Temp Water Temp Dewpoint Dewpoint Depression Visibility Wind Speed Wind Dir Waves Ship Positions

Lady Lauren

Owner: Louisiana Marine Towing LLC, Lafayette, LA. More information available from US FCC via Universal Licensing System and Coast Guard Vessel Documentation Center.

Last reported at 2014-Oct-18 16:26 UTC. Time now 2014-Oct-21 18:29 UTC.
Position N 29°51' W 091°12'.

Length 22 m; draft 2.1 m.

Type: Towing. MMSI: 367397380.

Date/timePositionNaut miles runAvg speedWind from/ knotsBaromVisibWave heightAir tempDewpointWater temp
2014-Oct-18 16:26N 29°51' W 091°12'4 4.0
2014-Oct-18 15:33N 29°48' W 091°10'4 4.4
2014-Oct-18 14:33N 29°44' W 091°11'3 3.2
2014-Oct-18 13:33N 29°41' W 091°13'1 1.1
2014-Oct-18 12:33N 29°40' W 091°14'0 0.0
2014-Oct-18 11:33N 29°40' W 091°14'2 1.8
2014-Oct-18 10:33N 29°39' W 091°15'0 0.5
2014-Oct-18 09:33N 29°39' W 091°16'4 4.2
2014-Oct-18 08:33N 29°38' W 091°20'5 4.5
2014-Oct-18 07:33N 29°40' W 091°26'4 3.9
2014-Oct-18 06:26N 29°42' W 091°30'4 3.8
2014-Oct-18 05:21N 29°44' W 091°34'  
2014-Oct-15 16:32N 29°28' W 094°39'4 1.7
2014-Oct-15 14:04N 29°30' W 094°34'0 0.1
2014-Oct-15 11:33N 29°30' W 094°34'  
2014-Oct-11 08:28N 29°46' W 091°37'3 3.3
2014-Oct-11 07:33N 29°44' W 091°34'4 3.5
2014-Oct-11 06:22N 29°42' W 091°30'3 3.8
2014-Oct-11 05:29N 29°40' W 091°27'3 3.8
2014-Oct-11 04:34N 29°39' W 091°23'4 3.7
2014-Oct-11 03:34N 29°38' W 091°19'4 3.9
2014-Oct-11 02:34N 29°40' W 091°14'4 4.1
2014-Oct-11 01:34N 29°43' W 091°13'1 1.0
2014-Oct-11 00:34N 29°44' W 091°11'3 3.0
2014-Oct-10 23:33N 29°46' W 091°11'  

Dump ship's entire track history